Terminal Aerodrome Forecast
Issued by NWS Twin Cities, MN

Home | Current Version | Previous Version | Text Only | Print | Product List | Glossary On
Versions: 1 2 3 4 5 6 7 8 9 10 11 12 13
098
FTUS43 KMPX 160520
TAFEAU
TAF
KEAU 160520Z 1606/1706 33007KT P6SM SCT018 BKN050
     FM161700 30006KT P6SM FEW018
     FM170000 25004KT P6SM SCT100=

USA.gov is the U.S. government's official web portal to all federal, state and local government web resources and services.